createdAt,value
2023-05-04T00:00:02.633Z,997.5116
2023-05-04T00:01:03.454Z,997.7164
2023-05-04T00:02:03.928Z,997.4551
2023-05-04T00:03:01.930Z,997.3492
2023-05-04T00:04:02.550Z,997.4622
2023-05-04T00:05:01.837Z,997.4129
2023-05-04T00:06:02.154Z,997.4976
2023-05-04T00:07:01.679Z,997.4694
2023-05-04T00:08:02.169Z,997.4554
2023-05-04T00:09:02.194Z,997.4979
2023-05-04T00:10:02.015Z,997.4204
2023-05-04T00:11:01.782Z,997.4134
2023-05-04T00:12:01.444Z,997.5124
2023-05-04T00:13:01.990Z,997.4841
2023-05-04T00:14:01.429Z,997.449
2023-05-04T00:15:03.559Z,997.4277
2023-05-04T00:16:02.962Z,997.4912
2023-05-04T00:17:03.516Z,997.4277
2023-05-04T00:18:02.307Z,997.329
2023-05-04T00:19:01.755Z,997.3996
2023-05-04T00:20:04.009Z,997.3857
2023-05-04T00:21:01.693Z,997.3857
2023-05-04T00:22:03.753Z,997.3292
2023-05-04T00:23:03.277Z,997.2025
2023-05-04T00:24:02.086Z,997.3367
2023-05-04T00:25:03.213Z,997.2802
2023-05-04T00:26:03.706Z,997.1394
2023-05-04T00:27:01.454Z,997.224
2023-05-04T00:28:01.949Z,997.3794
2023-05-04T00:29:01.371Z,997.4076
2023-05-04T00:30:01.894Z,997.2101
2023-05-04T00:31:02.326Z,997.3301
2023-05-04T00:32:03.518Z,997.2667
2023-05-04T00:33:02.313Z,997.1608
2023-05-04T00:34:01.698Z,997.3794
2023-05-04T00:35:02.193Z,997.4498
2023-05-04T00:36:01.699Z,997.4498
2023-05-04T00:37:02.189Z,997.1606
2023-05-04T00:38:03.274Z,997.3794
2023-05-04T00:39:02.079Z,997.1536
2023-05-04T00:40:01.560Z,997.1818
2023-05-04T00:41:02.001Z,997.2315
2023-05-04T00:42:01.446Z,997.1611
2023-05-04T00:43:01.917Z,997.2599
2023-05-04T00:44:01.362Z,997.3446
2023-05-04T00:45:01.886Z,997.1896
2023-05-04T00:46:01.360Z,997.2743
2023-05-04T00:47:01.854Z,997.2884
2023-05-04T00:48:02.385Z,997.1546
2023-05-04T00:49:01.760Z,997.2817
2023-05-04T00:50:02.604Z,997.0279
2023-05-04T00:51:01.710Z,997.0843
2023-05-04T00:52:03.842Z,997.148
2023-05-04T00:53:01.604Z,997.2043
2023-05-04T00:54:02.088Z,996.9223
2023-05-04T00:55:01.618Z,997.148
2023-05-04T00:56:03.684Z,997.0705
2023-05-04T00:57:03.197Z,997.113
2023-05-04T00:58:02.016Z,997.1555
2023-05-04T00:59:01.445Z,997.1484
2023-05-04T01:00:02.171Z,996.9232
2023-05-04T01:01:01.486Z,997.036
2023-05-04T01:02:01.950Z,997.0077
2023-05-04T01:03:01.450Z,997.036
2023-05-04T01:04:01.934Z,996.9232
2023-05-04T01:05:01.387Z,997.2612
2023-05-04T01:06:01.841Z,996.9231
2023-05-04T01:07:03.925Z,997.0641
2023-05-04T01:08:01.768Z,996.9796
2023-05-04T01:09:02.248Z,996.9586
2023-05-04T01:10:03.614Z,996.987
2023-05-04T01:11:02.162Z,996.9873
2023-05-04T01:12:01.694Z,996.9239
2023-05-04T01:13:02.214Z,997.0367
2023-05-04T01:14:01.607Z,996.9521
2023-05-04T01:15:02.174Z,996.917
2023-05-04T01:16:01.613Z,996.8255
2023-05-04T01:17:02.323Z,996.8466
2023-05-04T01:18:02.078Z,996.8397
2023-05-04T01:19:01.468Z,996.72
2023-05-04T01:20:03.932Z,996.8609
2023-05-04T01:21:01.376Z,996.8751
2023-05-04T01:22:01.874Z,996.8118
2023-05-04T01:24:01.765Z,996.7909
2023-05-04T01:25:02.270Z,996.7912
2023-05-04T01:26:03.366Z,996.8548
2023-05-04T01:27:02.202Z,996.9393
2023-05-04T01:28:01.680Z,996.8548
2023-05-04T01:29:02.175Z,996.7703
2023-05-04T01:30:03.548Z,997.0945
2023-05-04T01:31:02.112Z,996.8691
2023-05-04T01:32:01.545Z,996.9042
2023-05-04T01:33:02.050Z,996.9324
2023-05-04T01:34:01.446Z,997.0453
2023-05-04T01:35:01.943Z,997.0877
2023-05-04T01:36:03.034Z,996.9193
2023-05-04T01:37:01.841Z,997.0885
2023-05-04T01:39:01.795Z,996.9477
2023-05-04T01:40:04.142Z,996.9756
2023-05-04T01:41:01.710Z,997.025
2023-05-04T01:42:02.178Z,996.9193
2023-05-04T01:43:01.719Z,997.0107
2023-05-04T01:44:02.167Z,996.9193
2023-05-04T01:45:01.599Z,997.0392
2023-05-04T01:46:02.128Z,996.9401
2023-05-04T01:47:01.510Z,997.0314
2023-05-04T01:48:02.057Z,996.975
2023-05-04T01:49:03.132Z,997.0596
2023-05-04T01:50:02.096Z,997.0596
2023-05-04T01:51:01.353Z,996.8417
2023-05-04T01:52:01.848Z,996.8841
2023-05-04T01:53:01.386Z,996.9265
2023-05-04T01:54:01.854Z,997.1446
2023-05-04T01:55:02.249Z,996.9756
2023-05-04T01:56:01.817Z,996.9544
2023-05-04T01:57:02.245Z,996.912
2023-05-04T01:58:01.682Z,997.1092
2023-05-04T01:59:02.154Z,996.8699
2023-05-04T02:00:01.641Z,997.0603
2023-05-04T02:01:02.106Z,997.0322
2023-05-04T02:02:01.635Z,996.9689
2023-05-04T02:03:02.030Z,997.0041
2023-05-04T02:04:01.731Z,996.8917
2023-05-04T02:05:02.009Z,997.0045
2023-05-04T02:06:01.452Z,996.9343
2023-05-04T02:07:01.944Z,996.878
2023-05-04T02:08:03.036Z,996.787
2023-05-04T02:09:01.846Z,996.8996
2023-05-04T02:10:01.411Z,996.8993
2023-05-04T02:11:01.852Z,996.878
2023-05-04T02:12:02.310Z,996.9343
2023-05-04T02:13:01.887Z,996.8433
2023-05-04T02:14:02.247Z,996.8505
2023-05-04T02:15:01.755Z,996.9982
2023-05-04T02:16:02.191Z,997.0122
2023-05-04T02:17:03.352Z,996.8925
2023-05-04T02:18:02.266Z,996.8433
2023-05-04T02:19:01.615Z,996.9277
2023-05-04T02:20:03.917Z,996.8856
2023-05-04T02:21:01.520Z,996.8224
2023-05-04T02:22:02.021Z,996.8787
2023-05-04T02:23:01.580Z,996.9492
2023-05-04T02:24:01.997Z,996.8366
2023-05-04T02:25:01.602Z,996.7521
2023-05-04T02:26:02.086Z,996.8366
2023-05-04T02:27:01.529Z,996.8366
2023-05-04T02:28:02.036Z,996.9492
2023-05-04T02:29:01.452Z,996.8931
2023-05-04T02:30:03.746Z,996.8156
2023-05-04T02:31:01.435Z,996.8438
2023-05-04T02:32:01.975Z,996.9143
2023-05-04T02:33:01.451Z,996.7454
2023-05-04T02:34:01.866Z,996.7808
2023-05-04T02:35:02.327Z,996.6963
2023-05-04T02:36:03.436Z,996.8792
2023-05-04T02:37:02.233Z,996.7526
2023-05-04T02:38:03.369Z,996.9006
2023-05-04T02:39:02.154Z,996.8728
2023-05-04T02:40:01.712Z,996.7884
2023-05-04T02:41:02.093Z,996.9006
2023-05-04T02:42:01.595Z,996.8162
2023-05-04T02:43:03.781Z,996.8513
2023-05-04T02:44:01.519Z,996.8653
2023-05-04T02:45:02.003Z,996.8792
2023-05-04T02:46:01.476Z,996.8231
2023-05-04T02:47:01.918Z,996.6895
2023-05-04T02:48:01.517Z,996.6682
2023-05-04T02:49:01.872Z,996.7106
2023-05-04T02:50:03.431Z,996.788
2023-05-04T02:51:03.523Z,996.7318
2023-05-04T02:52:02.254Z,996.7318
2023-05-04T02:53:01.765Z,996.788
2023-05-04T02:54:02.269Z,996.7251
2023-05-04T02:55:01.720Z,996.9006
2023-05-04T02:56:02.163Z,996.7599
2023-05-04T02:57:01.613Z,996.6343
2023-05-04T02:58:02.094Z,996.7754
2023-05-04T02:59:01.640Z,996.7754
2023-05-04T03:00:03.985Z,996.7966
2023-05-04T03:01:01.549Z,996.8105
2023-05-04T03:02:02.023Z,996.8736
2023-05-04T03:03:01.595Z,996.9087
2023-05-04T03:04:02.099Z,996.8736
2023-05-04T03:05:01.472Z,996.9303
2023-05-04T03:06:01.929Z,996.9586
2023-05-04T03:07:01.439Z,996.7339
2023-05-04T03:08:01.908Z,996.8606
2023-05-04T03:09:03.035Z,996.8606
2023-05-04T03:10:01.877Z,996.7905
2023-05-04T03:11:03.036Z,996.8606
2023-05-04T03:12:03.521Z,996.8462
2023-05-04T03:13:02.358Z,996.818
2023-05-04T03:14:01.773Z,996.9233
2023-05-04T03:15:02.262Z,996.7827
2023-05-04T03:16:01.792Z,996.6914
2023-05-04T03:17:02.275Z,996.7618
2023-05-04T03:18:01.733Z,996.8606
2023-05-04T03:19:02.180Z,996.8046
2023-05-04T03:20:01.767Z,996.7766
2023-05-04T03:21:02.182Z,996.8467
2023-05-04T03:22:01.631Z,996.8606
2023-05-04T03:23:02.092Z,996.8183
2023-05-04T03:24:03.190Z,996.7481
2023-05-04T03:25:02.080Z,996.7971
2023-05-04T03:26:01.552Z,996.7408
2023-05-04T03:27:02.004Z,996.7415
2023-05-04T03:28:01.521Z,996.6855
2023-05-04T03:29:02.013Z,996.8047
2023-05-04T03:30:03.529Z,996.7765
2023-05-04T03:31:02.174Z,996.9029
2023-05-04T03:32:01.646Z,996.7905
2023-05-04T03:33:02.117Z,996.8887
2023-05-04T03:34:01.542Z,996.8748
2023-05-04T03:35:03.942Z,996.8467
2023-05-04T03:36:01.574Z,996.7696
2023-05-04T03:37:02.023Z,996.8469
2023-05-04T03:38:01.449Z,997.0649
2023-05-04T03:39:03.640Z,996.798
2023-05-04T03:40:01.356Z,996.8545
2023-05-04T03:41:01.845Z,996.7279
2023-05-04T03:42:02.365Z,996.798
2023-05-04T03:43:01.765Z,996.8893
2023-05-04T03:44:02.253Z,996.8962
2023-05-04T03:45:04.354Z,996.8262
2023-05-04T03:46:02.229Z,996.8543
2023-05-04T03:47:01.678Z,996.7279
2023-05-04T03:48:02.202Z,996.7982
2023-05-04T03:49:01.606Z,996.7418
2023-05-04T03:50:03.979Z,996.77
2023-05-04T03:51:01.544Z,996.8681
2023-05-04T03:52:02.003Z,996.7418
2023-05-04T03:53:01.434Z,996.7907
2023-05-04T03:54:03.590Z,996.9102
2023-05-04T03:55:01.350Z,996.9243
2023-05-04T03:56:01.891Z,996.8188
2023-05-04T03:57:01.365Z,996.8328
2023-05-04T03:58:01.854Z,996.9029
2023-05-04T03:59:03.995Z,996.7905
2023-05-04T04:00:01.853Z,996.5794
2023-05-04T04:01:02.234Z,996.6635
2023-05-04T04:02:01.724Z,996.6774
2023-05-04T04:03:02.330Z,996.8533
2023-05-04T04:04:01.732Z,996.8814
2023-05-04T04:05:02.079Z,996.762
2023-05-04T04:06:01.563Z,996.8113
2023-05-04T04:07:01.994Z,996.7408
2023-05-04T04:08:01.532Z,996.8183
2023-05-04T04:09:03.619Z,996.8957
2023-05-04T04:10:01.445Z,996.9025
2023-05-04T04:11:01.849Z,996.8601
2023-05-04T04:12:01.354Z,996.7685
2023-05-04T04:13:01.943Z,996.7966
2023-05-04T04:14:02.333Z,997.0428
2023-05-04T04:15:01.772Z,996.9514
2023-05-04T04:16:02.310Z,996.7264
2023-05-04T04:17:01.716Z,996.9514
2023-05-04T04:18:02.204Z,996.8736
2023-05-04T04:19:01.601Z,996.8872
2023-05-04T04:20:02.471Z,996.9006
2023-05-04T04:21:01.611Z,996.7739
2023-05-04T04:22:02.098Z,996.7526
2023-05-04T04:23:01.528Z,996.7106
2023-05-04T04:24:02.032Z,996.9076
2023-05-04T04:25:01.451Z,996.7176
2023-05-04T04:26:03.598Z,996.9496
2023-05-04T04:27:03.045Z,996.7669
2023-05-04T04:28:01.854Z,996.8443
2023-05-04T04:29:01.380Z,996.8725
2023-05-04T04:30:01.981Z,996.9076
2023-05-04T04:31:02.280Z,996.9355
2023-05-04T04:32:01.781Z,996.8789
2023-05-04T04:33:02.365Z,996.928
2023-05-04T04:34:01.677Z,996.8224
2023-05-04T04:35:02.253Z,997.0124
2023-05-04T04:36:03.440Z,997.0618
2023-05-04T04:37:01.597Z,996.7808
2023-05-04T04:38:03.721Z,996.9778
2023-05-04T04:39:01.366Z,996.9076
2023-05-04T04:40:03.724Z,996.809
2023-05-04T04:41:01.359Z,996.8231
2023-05-04T04:42:01.848Z,996.8929
2023-05-04T04:43:04.010Z,997.0188
2023-05-04T04:44:01.761Z,996.8919
2023-05-04T04:45:02.256Z,996.8914
2023-05-04T04:46:01.703Z,996.8139
2023-05-04T04:47:02.257Z,996.9193
2023-05-04T04:48:01.637Z,996.8841
2023-05-04T04:49:02.113Z,996.8278
2023-05-04T04:50:01.534Z,996.8841
2023-05-04T04:51:03.701Z,996.8139
2023-05-04T04:52:01.433Z,996.8068
2023-05-04T04:53:03.622Z,996.835
2023-05-04T04:54:01.439Z,996.9544
2023-05-04T04:55:03.518Z,996.9469
2023-05-04T04:56:01.372Z,996.9042
2023-05-04T04:57:01.766Z,996.9317
2023-05-04T04:58:02.254Z,996.9809
2023-05-04T04:59:01.772Z,996.7693
2023-05-04T05:00:02.393Z,996.8537
2023-05-04T05:01:03.387Z,996.8888
2023-05-04T05:02:02.177Z,996.8393
2023-05-04T05:03:03.350Z,996.7054
2023-05-04T05:04:01.359Z,996.7333
2023-05-04T05:05:02.073Z,996.7333
2023-05-04T05:07:01.862Z,996.7818
2023-05-04T05:08:02.350Z,996.7042
2023-05-04T05:09:01.790Z,996.7321
2023-05-04T05:10:02.392Z,996.8022
2023-05-04T05:11:03.493Z,996.7664
2023-05-04T05:12:02.240Z,996.9072
2023-05-04T05:13:01.879Z,996.9066
2023-05-04T05:14:03.918Z,996.8429
2023-05-04T05:15:01.687Z,996.8848
2023-05-04T05:16:03.934Z,996.934
2023-05-04T05:17:01.979Z,996.7149
2023-05-04T05:18:01.436Z,996.8344
2023-05-04T05:19:01.914Z,996.8198
2023-05-04T05:20:01.471Z,996.9748
2023-05-04T05:21:01.931Z,996.798
2023-05-04T05:22:01.454Z,997.0094
2023-05-04T05:23:01.984Z,996.8604
2023-05-04T05:24:01.513Z,996.6836
2023-05-04T05:25:02.008Z,996.6686
2023-05-04T05:26:03.348Z,996.7737
2023-05-04T05:27:02.024Z,996.9073
2023-05-04T05:28:03.117Z,996.7863
2023-05-04T05:29:01.933Z,996.7784
2023-05-04T05:30:01.559Z,996.7281
2023-05-04T05:31:02.063Z,996.8266
2023-05-04T05:32:01.513Z,996.9179
2023-05-04T05:33:02.173Z,996.8679
2023-05-04T05:34:01.617Z,996.8323
2023-05-04T05:35:02.062Z,996.8674
2023-05-04T05:36:01.586Z,996.8882
2023-05-04T05:37:02.073Z,996.7956
2023-05-04T05:38:01.592Z,996.8656
2023-05-04T05:39:02.107Z,996.7376
2023-05-04T05:40:01.687Z,996.8151
2023-05-04T05:41:03.936Z,996.7508
2023-05-04T05:42:03.345Z,996.7432
2023-05-04T05:43:02.242Z,997.0049
2023-05-04T05:44:01.804Z,996.8768
2023-05-04T05:45:02.231Z,996.6567
2023-05-04T05:46:03.365Z,996.7343
2023-05-04T05:47:02.163Z,996.8122
2023-05-04T05:48:01.603Z,996.7337
2023-05-04T05:49:03.775Z,996.712
2023-05-04T05:50:01.622Z,996.8604
2023-05-04T05:51:01.985Z,996.959
2023-05-04T05:52:01.432Z,996.817
2023-05-04T05:53:01.919Z,996.8238
2023-05-04T05:54:01.360Z,996.7453
2023-05-04T05:55:02.871Z,996.6169
2023-05-04T05:56:01.346Z,996.6876
2023-05-04T05:57:03.446Z,996.6445
2023-05-04T05:58:02.310Z,996.8073
2023-05-04T05:59:01.747Z,996.5937
2023-05-04T06:00:02.437Z,996.6142
2023-05-04T06:01:01.697Z,996.7487
2023-05-04T06:02:02.169Z,996.5063
2023-05-04T06:03:01.839Z,996.641
2023-05-04T06:04:02.229Z,996.562
2023-05-04T06:05:01.727Z,996.6043
2023-05-04T06:06:03.678Z,996.7249
2023-05-04T06:07:01.525Z,996.7952
2023-05-04T06:08:03.662Z,996.6734
2023-05-04T06:09:01.434Z,996.8652
2023-05-04T06:10:01.940Z,996.6943
2023-05-04T06:11:01.419Z,996.537
2023-05-04T06:12:01.905Z,996.6219
2023-05-04T06:13:01.363Z,996.4176
2023-05-04T06:14:03.527Z,996.5921
2023-05-04T06:15:01.348Z,996.4659
2023-05-04T06:16:01.913Z,996.4842
2023-05-04T06:17:02.321Z,996.476
2023-05-04T06:18:01.838Z,996.6752
2023-05-04T06:19:02.223Z,996.3992
2023-05-04T06:20:01.682Z,996.5951
2023-05-04T06:21:02.160Z,996.5165
2023-05-04T06:22:01.666Z,996.5161
2023-05-04T06:23:02.152Z,996.4936
2023-05-04T06:24:01.586Z,996.3954
2023-05-04T06:25:05.879Z,996.3884
2023-05-04T06:26:01.502Z,996.4846
2023-05-04T06:27:02.001Z,996.4579
2023-05-04T06:28:01.542Z,996.498
2023-05-04T06:29:02.023Z,996.4579
2023-05-04T06:30:01.507Z,996.3362
2023-05-04T06:31:01.926Z,996.4566
2023-05-04T06:32:03.132Z,996.385
2023-05-04T06:33:02.015Z,996.4704
2023-05-04T06:34:02.321Z,996.6816
2023-05-04T06:35:01.765Z,996.5032
2023-05-04T06:36:04.010Z,996.4267
2023-05-04T06:37:03.367Z,996.2832
2023-05-04T06:38:02.205Z,996.4042
2023-05-04T06:39:01.669Z,996.3818
2023-05-04T06:40:02.184Z,996.4598
2023-05-04T06:41:01.624Z,996.3096
2023-05-04T06:42:02.103Z,996.3382
2023-05-04T06:43:01.524Z,996.3594
2023-05-04T06:44:03.679Z,996.2158
2023-05-04T06:45:01.523Z,996.4764
2023-05-04T06:46:02.079Z,996.2707
2023-05-04T06:47:01.441Z,996.2992
2023-05-04T06:48:01.966Z,996.2848
2023-05-04T06:49:01.361Z,996.3417
2023-05-04T06:50:02.055Z,996.2703
2023-05-04T06:51:03.087Z,996.4199
2023-05-04T06:52:02.003Z,996.4624
2023-05-04T06:53:01.528Z,996.4551
2023-05-04T06:54:03.602Z,996.3764
2023-05-04T06:55:01.443Z,996.3046
2023-05-04T06:56:01.944Z,996.5598
2023-05-04T06:57:01.358Z,996.4736
2023-05-04T06:58:01.862Z,996.5091
2023-05-04T06:59:02.331Z,996.4736
2023-05-04T07:00:01.849Z,996.4731
2023-05-04T07:01:02.287Z,996.68
2023-05-04T07:02:01.700Z,996.5
2023-05-04T07:03:03.884Z,996.4162
2023-05-04T07:04:01.751Z,996.4446
2023-05-04T07:05:03.867Z,996.6272
2023-05-04T07:06:01.626Z,996.3998
2023-05-04T07:07:02.107Z,996.5478
2023-05-04T07:08:01.602Z,996.4281
2023-05-04T07:09:02.110Z,996.4709
2023-05-04T07:10:01.589Z,996.399
2023-05-04T07:11:02.050Z,996.3189
2023-05-04T07:12:01.565Z,996.4328
2023-05-04T07:13:02.097Z,996.4037
2023-05-04T07:14:01.445Z,996.3678
2023-05-04T07:15:01.927Z,996.4539
2023-05-04T07:16:01.437Z,996.4169
2023-05-04T07:17:01.922Z,996.4711
2023-05-04T07:18:01.540Z,996.5061
2023-05-04T07:19:03.520Z,996.5061
2023-05-04T07:20:01.399Z,996.307
2023-05-04T07:21:21.942Z,996.3495
2023-05-04T07:22:02.329Z,996.2407
2023-05-04T07:23:01.774Z,996.255
2023-05-04T07:24:03.926Z,996.1832
2023-05-04T07:25:01.692Z,996.2404
2023-05-04T07:26:02.174Z,996.3764
2023-05-04T07:27:01.703Z,996.1524
2023-05-04T07:28:02.164Z,996.1877
2023-05-04T07:29:01.607Z,996.2379
2023-05-04T07:30:02.312Z,996.3241
2023-05-04T07:31:01.601Z,996.1362
2023-05-04T07:32:02.144Z,996.0715
2023-05-04T07:33:01.589Z,996.0636
2023-05-04T07:34:01.997Z,996.2647
2023-05-04T07:35:01.524Z,996.1561
2023-05-04T07:36:01.989Z,996.0401
2023-05-04T07:37:03.124Z,995.9962
2023-05-04T07:38:01.943Z,996.1472
2023-05-04T07:39:01.455Z,996.0093
2023-05-04T07:40:03.813Z,996.0445
2023-05-04T07:41:01.360Z,996.0873
2023-05-04T07:42:01.838Z,996.0153
2023-05-04T07:43:01.375Z,996.0078
2023-05-04T07:44:03.517Z,996.1228
2023-05-04T07:45:02.337Z,996.1228
2023-05-04T07:46:01.818Z,995.9856
2023-05-04T07:47:02.248Z,996.0857
2023-05-04T07:48:01.814Z,996.1428
2023-05-04T07:49:03.928Z,996.171
2023-05-04T07:50:03.567Z,995.9896
2023-05-04T07:51:02.171Z,995.9746
2023-05-04T07:52:01.680Z,995.9743
2023-05-04T07:53:02.170Z,996.0748
2023-05-04T07:54:01.600Z,996.1102
2023-05-04T07:55:02.076Z,995.8422
2023-05-04T07:56:01.615Z,995.9579
2023-05-04T07:57:03.756Z,995.9146
2023-05-04T07:58:01.595Z,995.9867
2023-05-04T07:59:01.511Z,996.1965
2023-05-04T08:00:02.174Z,996.0949
2023-05-04T08:01:01.475Z,996.1079
2023-05-04T08:02:01.949Z,995.9476
2023-05-04T08:03:01.553Z,995.955
2023-05-04T08:04:01.847Z,996.0347
2023-05-04T08:05:03.045Z,995.9111
2023-05-04T08:06:01.855Z,995.9312
2023-05-04T08:07:02.323Z,995.9673
2023-05-04T08:08:01.767Z,996.1401
2023-05-04T08:09:02.246Z,995.9226
2023-05-04T08:10:01.709Z,996.125
2023-05-04T08:11:18.567Z,996.1965
2023-05-04T08:12:03.355Z,995.9205
2023-05-04T08:13:02.173Z,995.9055
2023-05-04T08:14:01.605Z,995.9628
2023-05-04T08:15:02.241Z,996.0558
2023-05-04T08:16:01.638Z,996.0041
2023-05-04T08:17:03.750Z,995.9238
2023-05-04T08:18:01.575Z,995.9302
2023-05-04T08:19:01.999Z,995.9657
2023-05-04T08:20:03.119Z,995.7988
2023-05-04T08:21:01.929Z,995.8059
2023-05-04T08:22:01.449Z,995.7261
2023-05-04T08:23:01.933Z,995.8266
2023-05-04T08:24:01.371Z,995.9049
2023-05-04T08:25:01.847Z,995.9257
2023-05-04T08:26:03.053Z,996.1146
2023-05-04T08:27:07.929Z,995.8234
2023-05-04T08:28:02.243Z,995.9818
2023-05-04T08:29:01.776Z,995.9451
2023-05-04T08:30:02.268Z,995.8927
2023-05-04T08:31:03.366Z,995.8263
2023-05-04T08:32:03.998Z,995.8844
2023-05-04T08:33:01.640Z,995.9852
2023-05-04T08:34:03.789Z,995.9135
2023-05-04T08:35:01.611Z,995.7036
2023-05-04T08:36:02.086Z,996.0142
2023-05-04T08:37:03.281Z,995.7883
2023-05-04T08:38:02.016Z,995.7376
2023-05-04T08:39:01.531Z,995.7216
2023-05-04T08:40:02.002Z,995.7719
2023-05-04T08:41:01.442Z,995.9303
2023-05-04T08:42:01.934Z,995.69
2023-05-04T08:43:01.485Z,995.7344
2023-05-04T08:44:01.933Z,995.7411
2023-05-04T08:45:01.360Z,995.6669
2023-05-04T08:46:03.681Z,995.7024
2023-05-04T08:47:01.325Z,995.7012
2023-05-04T08:48:01.796Z,995.5489
2023-05-04T08:49:02.239Z,995.6772
2023-05-04T08:50:01.780Z,995.751
2023-05-04T08:51:02.248Z,995.6924
2023-05-04T08:52:03.384Z,995.5185
2023-05-04T08:53:02.161Z,995.6835
2023-05-04T08:54:01.603Z,995.6543
2023-05-04T08:55:02.241Z,995.553
2023-05-04T08:56:01.608Z,995.4651
2023-05-04T08:57:02.097Z,995.4576
2023-05-04T08:58:01.558Z,995.6095
2023-05-04T08:59:02.085Z,995.4719
2023-05-04T09:00:01.559Z,995.6966
2023-05-04T09:01:02.163Z,995.5743
2023-05-04T09:02:01.563Z,995.6835
2023-05-04T09:03:03.804Z,995.5611
2023-05-04T09:04:01.511Z,995.6018
2023-05-04T09:05:03.868Z,995.5226
2023-05-04T09:06:02.249Z,995.5747
2023-05-04T09:07:03.358Z,995.5666
2023-05-04T09:08:02.162Z,995.6066
2023-05-04T09:09:01.625Z,995.5494
2023-05-04T09:10:02.083Z,995.5705
2023-05-04T09:11:01.644Z,995.6557
2023-05-04T09:12:02.006Z,995.7307
2023-05-04T09:13:01.571Z,995.5307
2023-05-04T09:14:02.012Z,995.6598
2023-05-04T09:15:01.460Z,995.5586
2023-05-04T09:16:01.927Z,995.5499
2023-05-04T09:17:01.429Z,995.7458
2023-05-04T09:18:03.543Z,995.621
2023-05-04T09:20:01.785Z,995.7175
2023-05-04T09:21:03.930Z,995.5367
2023-05-04T09:22:01.690Z,995.665
2023-05-04T09:23:02.168Z,995.649
2023-05-04T09:24:01.699Z,995.7074
2023-05-04T09:25:02.289Z,995.6557
2023-05-04T09:26:01.604Z,995.5413
2023-05-04T09:27:03.759Z,995.6374
2023-05-04T09:28:01.520Z,995.5719
2023-05-04T09:29:02.010Z,995.649
2023-05-04T09:30:01.530Z,995.8013
2023-05-04T09:31:03.615Z,995.6982
2023-05-04T09:32:01.462Z,995.7061
2023-05-04T09:33:01.937Z,995.7358
2023-05-04T09:34:01.360Z,995.5548
2023-05-04T09:35:01.874Z,995.7358
2023-05-04T09:36:02.323Z,995.6683
2023-05-04T09:37:01.981Z,995.5379
2023-05-04T09:38:02.266Z,995.537
2023-05-04T09:39:03.357Z,995.6876
2023-05-04T09:40:02.145Z,995.6579
2023-05-04T09:41:01.682Z,995.573
2023-05-04T09:42:02.179Z,995.6134
2023-05-04T09:43:01.634Z,995.6723
2023-05-04T09:44:02.118Z,995.5353
2023-05-04T09:45:03.741Z,995.7007
2023-05-04T09:46:02.038Z,995.4697
2023-05-04T09:47:01.506Z,995.4985
2023-05-04T09:48:01.950Z,995.5798
2023-05-04T09:49:01.360Z,995.6579
2023-05-04T09:50:01.957Z,995.5276
2023-05-04T09:51:03.048Z,995.4097
2023-05-04T09:52:03.450Z,995.3499
2023-05-04T09:53:02.246Z,995.43
2023-05-04T09:54:01.682Z,995.4621
2023-05-04T09:55:02.482Z,995.4024
2023-05-04T09:56:05.067Z,995.4314
2023-05-04T09:57:02.152Z,995.3584
2023-05-04T09:58:01.628Z,995.4602
2023-05-04T09:59:02.109Z,995.4377
2023-05-04T10:00:01.525Z,995.313
2023-05-04T10:01:02.009Z,995.3846
2023-05-04T10:02:14.604Z,995.4352
2023-05-04T10:03:01.964Z,995.2667
2023-05-04T10:04:01.367Z,995.3688
2023-05-04T10:05:03.747Z,995.4721
2023-05-04T10:06:01.360Z,995.4877
2023-05-04T10:07:03.522Z,995.444
2023-05-04T10:08:03.936Z,995.2999
2023-05-04T10:09:01.753Z,995.3945
2023-05-04T10:10:02.248Z,995.4733
2023-05-04T10:11:03.376Z,995.313
2023-05-04T10:12:02.192Z,995.2765
2023-05-04T10:13:01.803Z,995.4733
2023-05-04T10:14:04.168Z,995.2382
2023-05-04T10:15:01.679Z,995.333
2023-05-04T10:16:03.876Z,995.2015
2023-05-04T10:17:01.611Z,995.1288
2023-05-04T10:18:02.143Z,995.1585
2023-05-04T10:19:01.520Z,995.1806
2023-05-04T10:20:02.045Z,995.218
2023-05-04T10:21:01.431Z,995.2093
2023-05-04T10:22:01.976Z,995.2013
2023-05-04T10:23:01.389Z,995.2369
2023-05-04T10:24:01.854Z,995.1048
2023-05-04T10:25:03.117Z,995.0611
2023-05-04T10:26:01.751Z,995.0918
2023-05-04T10:27:02.244Z,995.1806
2023-05-04T10:28:01.789Z,995.0639
2023-05-04T10:29:02.163Z,994.9816
2023-05-04T10:30:01.741Z,995.0918
2023-05-04T10:31:02.169Z,995.0545
2023-05-04T10:32:01.747Z,994.9816
2023-05-04T10:33:02.147Z,995.1496
2023-05-04T10:34:01.528Z,994.9296
2023-05-04T10:35:02.034Z,994.9502
2023-05-04T10:36:03.143Z,994.9934
2023-05-04T10:37:03.600Z,994.9939
2023-05-04T10:38:01.360Z,995.018
2023-05-04T10:39:03.514Z,995.018
2023-05-04T10:41:01.801Z,994.8557
2023-05-04T10:42:02.266Z,994.9816
2023-05-04T10:43:01.689Z,994.9087
2023-05-04T10:44:02.170Z,994.8123
2023-05-04T10:45:01.600Z,994.7385
2023-05-04T10:46:02.123Z,994.7539
2023-05-04T10:47:01.621Z,994.6738
2023-05-04T10:48:02.132Z,994.8211
2023-05-04T10:49:03.205Z,994.7538
2023-05-04T10:50:02.002Z,994.7894
2023-05-04T10:51:01.437Z,994.623
2023-05-04T10:52:01.912Z,994.6922
2023-05-04T10:53:01.460Z,994.569
2023-05-04T10:54:03.625Z,994.511
2023-05-04T10:55:01.377Z,994.5696
2023-05-04T10:56:01.833Z,994.6492
2023-05-04T10:57:02.313Z,994.5684
2023-05-04T10:58:01.768Z,994.6487
2023-05-04T10:59:02.225Z,994.6112
2023-05-04T11:00:03.396Z,994.5458
2023-05-04T11:01:02.201Z,994.5895
2023-05-04T11:02:02.559Z,994.6487
2023-05-04T11:03:03.637Z,994.4435
2023-05-04T11:04:02.052Z,994.6779
2023-05-04T11:05:01.526Z,994.6487
2023-05-04T11:06:02.106Z,994.4965
2023-05-04T11:07:03.282Z,994.6282
2023-05-04T11:08:02.083Z,994.5403
2023-05-04T11:09:01.667Z,994.3998
2023-05-04T11:10:02.172Z,994.4059
2023-05-04T11:11:01.640Z,994.2967
2023-05-04T11:12:02.160Z,994.3699
2023-05-04T11:13:04.091Z,994.6173
2023-05-04T11:14:02.236Z,994.36
2023-05-04T11:15:01.770Z,994.3737
2023-05-04T11:17:02.797Z,994.3018
2023-05-04T11:18:01.374Z,994.309
2023-05-04T11:19:02.019Z,994.3233
2023-05-04T11:20:01.993Z,994.2781
2023-05-04T11:21:01.642Z,994.361
2023-05-04T11:22:02.118Z,994.2521
2023-05-04T11:23:01.510Z,994.2145
2023-05-04T11:24:02.006Z,994.2492
2023-05-04T11:25:01.525Z,994.3428
2023-05-04T11:26:02.000Z,994.2841
2023-05-04T11:27:01.559Z,994.3123
2023-05-04T11:28:01.922Z,994.2665
2023-05-04T11:29:01.354Z,994.2145
2023-05-04T11:30:01.875Z,994.2232
2023-05-04T11:31:03.280Z,994.2892
2023-05-04T11:32:01.900Z,994.1479
2023-05-04T11:33:02.404Z,994.2264
2023-05-04T11:34:01.762Z,994.1605
2023-05-04T11:35:02.300Z,994.1811
2023-05-04T11:36:01.666Z,994.1373
2023-05-04T11:37:02.257Z,994.2548
2023-05-04T11:38:01.673Z,994.064
2023-05-04T11:39:02.166Z,994.1144
2023-05-04T11:40:03.279Z,994.1589
2023-05-04T11:41:02.081Z,994.1948
2023-05-04T11:42:03.291Z,994.1644
2023-05-04T11:43:03.676Z,994.1048
2023-05-04T11:44:01.522Z,994.1342
2023-05-04T11:45:03.897Z,994.0443
2023-05-04T11:46:01.499Z,993.9699
2023-05-04T11:47:01.929Z,994.1402
2023-05-04T11:48:01.512Z,993.9338
2023-05-04T11:49:01.836Z,993.9867
2023-05-04T11:50:01.445Z,994.0809
2023-05-04T11:51:01.845Z,994.0383
2023-05-04T11:52:02.314Z,993.9596